Time;durP1;ratioP1;P1;durP2;ratioP2;P2;SDS_P1;SDS_P2;PMS_P1;PMS_P2;Temp;Humidity;BMP_temperature;BMP_pressure;BME280_temperature;BME280_humidity;BME280_pressure;Samples;Min_cycle;Max_cycle;Signal;HPM_P1;HPM_P2
2022/03/12 00:00:21;;;;;;;1.03;1.03;;;;;;;2.35;46.01;95191.25;2614863;54;20144;-82
2022/03/12 00:02:51;;;;;;;0.97;0.97;;;;;;;3.25;47.78;95280.13;2614967;47;20200;-83
2022/03/12 00:05:20;;;;;;;1.17;1.17;;;;;;;3.74;48.57;95263.84;2615009;54;20207;-83
2022/03/12 00:07:52;;;;;;;2.03;1.93;;;;;;;2.78;50.29;95150.25;2614845;47;20188;-83
2022/03/12 00:10:22;;;;;;;0.80;0.80;;;;;;;3.62;42.70;95240.63;2614729;47;20258;-82
2022/03/12 00:12:51;;;;;;;1.43;1.43;;;;;;;4.13;45.88;95292.38;2614851;54;20792;-84
2022/03/12 00:15:20;;;;;;;1.80;1.67;;;;;;;3.00;44.51;95223.81;2614732;47;20162;-82
2022/03/12 00:17:49;;;;;;;0.83;0.77;;;;;;;3.47;45.78;95290.06;2614927;54;20180;-84
2022/03/12 00:20:22;;;;;;;1.27;1.27;;;;;;;3.74;46.78;95301.00;2614930;54;20160;-83
2022/03/12 00:22:54;;;;;;;1.10;1.00;;;;;;;4.27;48.10;95305.25;2614895;47;20183;-82
2022/03/12 00:25:26;;;;;;;2.73;2.53;;;;;;;3.72;46.99;95284.06;2614754;54;20205;-83
2022/03/12 00:27:55;;;;;;;1.87;1.80;;;;;;;3.43;50.76;95300.97;2614972;54;20268;-82
2022/03/12 00:30:26;;;;;;;4.17;3.03;;;;;;;2.89;45.35;95269.19;2615220;39;20578;-82
2022/03/12 00:32:57;;;;;;;1.87;1.77;;;;;;;3.10;45.56;95280.47;2615057;39;20682;-84
2022/03/12 00:35:28;;;;;;;1.77;1.67;;;;;;;3.90;53.44;95295.75;2615370;48;20161;-83
2022/03/12 00:38:00;;;;;;;1.53;1.53;;;;;;;3.85;46.46;95303.16;2615412;54;20153;-82
2022/03/12 00:40:29;;;;;;;0.60;0.60;;;;;;;3.58;49.80;95306.22;2615832;54;20267;-83
2022/03/12 00:42:58;;;;;;;0.80;0.80;;;;;;;3.27;50.71;95296.34;2615898;47;20203;-82
2022/03/12 00:45:29;;;;;;;2.07;1.97;;;;;;;2.83;48.27;95283.47;2615734;47;20148;-83
2022/03/12 00:47:57;;;;;;;2.20;2.00;;;;;;;2.47;49.77;95264.81;2615979;54;20168;-83
2022/03/12 00:50:26;;;;;;;2.37;1.80;;;;;;;2.74;50.41;95307.31;2615809;54;20278;-83
2022/03/12 00:52:55;;;;;;;4.00;1.67;;;;;;;2.34;50.54;95296.75;2615767;54;20175;-84
2022/03/12 00:55:27;;;;;;;3.13;2.93;;;;;;;1.81;52.87;95294.19;2615697;47;20181;-83
2022/03/12 00:57:56;;;;;;;2.73;1.77;;;;;;;1.87;54.23;95298.19;2615552;54;20180;-82
2022/03/12 01:00:27;;;;;;;3.00;2.70;;;;;;;1.45;54.13;95294.97;2615498;39;20414;-82
2022/03/12 01:02:56;;;;;;;2.57;2.47;;;;;;;2.08;57.66;95300.41;2615802;46;20218;-83
2022/03/12 01:05:27;;;;;;;2.33;2.17;;;;;;;1.43;54.28;95289.97;2615564;54;20153;-81
2022/03/12 01:07:55;;;;;;;2.17;2.13;;;;;;;2.25;52.74;95305.88;2615628;47;20183;-82
2022/03/12 01:10:27;;;;;;;1.83;1.70;;;;;;;1.88;52.45;95248.63;2615436;47;20180;-83
2022/03/12 01:12:55;;;;;;;6.80;2.70;;;;;;;1.08;53.49;95250.31;2615892;47;20172;-83
2022/03/12 01:15:24;;;;;;;2.57;2.40;;;;;;;0.56;56.20;95291.53;2615516;54;20277;-83
2022/03/12 01:17:54;;;;;;;3.43;3.13;;;;;;;1.04;55.64;95305.78;2615715;54;20222;-84
2022/03/12 01:20:23;;;;;;;2.83;1.80;;;;;;;1.71;54.03;95285.78;2615587;47;20264;-83
2022/03/12 01:22:52;;;;;;;2.70;2.50;;;;;;;2.69;52.36;95307.66;2616295;39;20642;-82
2022/03/12 01:25:21;;;;;;;3.23;3.07;;;;;;;2.74;50.40;95281.41;2615758;47;20173;-83
2022/03/12 01:27:52;;;;;;;2.10;1.90;;;;;;;2.34;51.05;95315.56;2616057;54;20176;-83
2022/03/12 01:30:29;;;;;;;2.50;2.37;;;;;;;1.38;52.79;95260.25;2615562;54;20220;-82
2022/03/12 01:32:58;;;;;;;3.03;2.93;;;;;;;-0.05;56.77;95256.03;2615704;54;20172;-84
2022/03/12 01:35:27;;;;;;;2.33;2.23;;;;;;;1.57;60.57;95293.09;2615465;47;20664;-83
2022/03/12 01:37:56;;;;;;;1.73;1.63;;;;;;;2.41;57.03;95265.13;2615823;47;20293;-83
2022/03/12 01:40:25;;;;;;;0.90;0.77;;;;;;;3.38;54.48;95329.31;2615759;54;20246;-83
2022/03/12 01:42:56;;;;;;;1.13;1.13;;;;;;;1.00;52.11;95289.47;2615465;54;20252;-83
2022/03/12 01:45:29;;;;;;;0.90;0.90;;;;;;;0.16;55.27;95283.47;2615125;54;20180;-82
2022/03/12 01:48:00;;;;;;;1.57;1.53;;;;;;;0.53;55.20;95315.75;2615659;54;20165;-83
2022/03/12 01:50:32;;;;;;;1.50;1.40;;;;;;;1.23;53.75;95310.75;2616079;39;20552;-83
2022/03/12 01:53:03;;;;;;;1.53;1.53;;;;;;;-1.93;61.02;95246.44;2615807;47;20189;-82
2022/03/12 01:55:33;;;;;;;0.80;0.80;;;;;;;-1.71;63.58;95308.75;2615576;54;20171;-82
2022/03/12 01:58:06;;;;;;;1.10;1.10;;;;;;;-1.76;63.52;95310.41;2615676;47;20174;-82
2022/03/12 02:00:44;;;;;;;1.27;1.27;;;;;;;-2.21;64.59;95295.38;2615748;54;20153;-82
2022/03/12 02:03:13;;;;;;;0.90;0.90;;;;;;;-1.86;66.80;95301.94;2615501;54;20231;-82
2022/03/12 02:05:42;;;;;;;2.03;1.83;;;;;;;-2.49;64.94;95242.16;2615274;54;20199;-84
2022/03/12 02:08:14;;;;;;;1.27;1.27;;;;;;;-2.91;67.96;95304.28;2615413;46;20185;-82
2022/03/12 02:10:44;;;;;;;1.03;1.03;;;;;;;-3.75;71.77;95294.28;2615512;46;20183;-83
2022/03/12 02:13:16;;;;;;;5.83;1.70;;;;;;;-4.66;72.91;95239.25;2615048;54;20173;-82
2022/03/12 02:15:45;;;;;;;2.60;2.50;;;;;;;-4.43;73.55;95253.94;2615879;54;20258;-83
2022/03/12 02:18:16;;;;;;;1.63;1.63;;;;;;;-3.02;71.48;95290.78;2615898;47;20165;-83
2022/03/12 02:20:45;;;;;;;0.97;0.97;;;;;;;-1.47;68.50;95302.53;2615551;47;20168;-83
2022/03/12 02:23:14;;;;;;;2.10;1.77;;;;;;;-0.34;63.27;95297.50;2615689;47;20166;-82
2022/03/12 02:25:46;;;;;;;1.27;1.07;;;;;;;-0.09;59.54;95291.91;2616118;47;20705;-82
2022/03/12 02:28:18;;;;;;;0.83;0.83;;;;;;;0.05;57.37;95256.09;2616604;47;20167;-83
2022/03/12 02:30:51;;;;;;;0.93;0.93;;;;;;;0.81;56.79;95302.59;2616035;54;20238;-82
2022/03/12 02:33:28;;;;;;;0.87;0.87;;;;;;;0.74;55.28;95297.84;2615533;54;20254;-82
2022/03/12 02:35:58;;;;;;;1.37;1.37;;;;;;;0.49;55.07;95298.69;2615448;47;20300;-81
2022/03/12 02:38:28;;;;;;;1.27;1.13;;;;;;;0.52;54.03;95258.53;2615139;54;20197;-82
2022/03/12 02:41:10;;;;;;;1.77;1.67;;;;;;;0.98;54.47;95291.34;2616308;39;20736;-82
2022/03/12 02:43:44;;;;;;;0.57;0.57;;;;;;;0.13;52.13;95145.38;2615497;47;20169;-83
2022/03/12 02:46:13;;;;;;;0.47;0.47;;;;;;;1.22;52.49;95286.94;2615455;47;20183;-83
2022/03/12 02:48:43;;;;;;;1.23;1.20;;;;;;;1.21;50.83;95289.00;2615227;54;20236;-83
2022/03/12 02:51:12;;;;;;;0.70;0.70;;;;;;;1.25;51.27;95286.50;2610715;54;20172;-83
2022/03/12 02:53:41;;;;;;;0.60;0.60;;;;;;;1.12;49.39;95219.94;2615033;54;20176;-83
2022/03/12 02:56:13;;;;;;;0.70;0.70;;;;;;;1.26;49.24;95292.81;2615116;54;20201;-82
2022/03/12 02:58:42;;;;;;;1.13;1.13;;;;;;;1.87;49.26;95309.34;2615182;54;20180;-83
2022/03/12 03:01:14;;;;;;;0.53;0.43;;;;;;;1.19;49.00;95251.84;2615607;54;20240;-82
2022/03/12 03:03:43;;;;;;;7.40;1.37;;;;;;;2.07;48.33;95315.69;2615203;47;20244;-83
2022/03/12 03:06:13;;;;;;;0.93;0.93;;;;;;;1.52;47.21;95230.63;2615213;54;20187;-83
2022/03/12 03:08:42;;;;;;;1.03;1.03;;;;;;;1.66;47.39;95287.53;2615457;54;20223;-83
2022/03/12 03:11:17;;;;;;;0.83;0.83;;;;;;;2.25;46.21;95330.28;2615363;47;20256;-82
2022/03/12 03:13:47;;;;;;;1.73;0.93;;;;;;;3.19;45.25;95305.63;2614671;54;20160;-85
2022/03/12 03:16:21;;;;;;;1.97;1.97;;;;;;;4.04;43.37;95329.63;2615097;54;20721;-83
2022/03/12 03:18:53;;;;;;;1.17;1.07;;;;;;;3.98;52.12;95329.19;2615361;47;20205;-82
2022/03/12 03:21:25;;;;;;;1.47;0.70;;;;;;;5.33;50.43;95293.09;2615594;54;20177;-83
2022/03/12 03:23:54;;;;;;;3.47;1.47;;;;;;;6.13;49.41;95326.03;2615115;47;20186;-83
2022/03/12 03:26:52;;;;;;;1.20;1.10;;;;;;;5.97;48.88;95314.53;2615580;47;20160;-83
2022/03/12 03:29:22;;;;;;;1.27;1.17;;;;;;;5.76;40.06;95286.53;2614581;54;20157;-82
2022/03/12 03:31:51;;;;;;;1.10;1.10;;;;;;;4.08;41.17;95315.88;2615014;54;20171;-82
2022/03/12 03:34:21;;;;;;;0.60;0.60;;;;;;;2.20;45.17;95290.13;2615506;47;20718;-83
2022/03/12 03:36:50;;;;;;;0.93;0.93;;;;;;;1.70;45.43;95267.56;2615723;47;20172;-83
2022/03/12 03:39:20;;;;;;;1.73;1.63;;;;;;;1.44;47.01;95347.25;2615118;47;20152;-82
2022/03/12 03:41:54;;;;;;;1.70;1.67;;;;;;;0.73;48.03;95288.72;2615823;54;20661;-82
2022/03/12 03:44:29;;;;;;;1.60;1.57;;;;;;;0.92;47.81;95346.69;2615711;39;20550;-83
2022/03/12 03:46:59;;;;;;;1.43;1.43;;;;;;;0.50;52.21;95308.53;2615380;47;20177;-82
2022/03/12 03:49:28;;;;;;;1.00;1.00;;;;;;;1.43;51.16;95307.44;2615516;39;20558;-82
2022/03/12 03:51:58;;;;;;;0.90;0.90;;;;;;;2.11;49.15;95343.94;2615571;54;20242;-83
2022/03/12 03:54:28;;;;;;;0.97;0.97;;;;;;;1.93;49.52;95251.13;2615659;54;20743;-84
2022/03/12 03:57:00;;;;;;;1.93;1.90;;;;;;;2.43;47.30;95298.09;2615771;54;20152;-82
2022/03/12 03:59:28;;;;;;;1.20;1.20;;;;;;;3.17;47.08;95304.75;2615271;54;20188;-82
2022/03/12 04:01:58;;;;;;;2.90;2.65;;;;;;;3.46;47.53;95283.00;2615027;54;20441;-82
2022/03/12 04:04:28;;;;;;;1.93;1.83;;;;;;;4.15;43.98;95335.28;2615324;47;20168;-82
2022/03/12 04:06:59;;;;;;;1.60;1.20;;;;;;;5.72;48.65;95306.69;2615583;47;20161;-82
2022/03/12 04:09:29;;;;;;;0.83;0.83;;;;;;;6.67;48.02;95348.22;2615597;39;20652;-82
2022/03/12 04:12:00;;;;;;;1.30;1.30;;;;;;;6.87;47.28;95301.50;2616100;47;20196;-84
2022/03/12 04:14:29;;;;;;;1.30;1.20;;;;;;;5.67;39.57;95339.44;2615979;54;20149;-83
2022/03/12 04:16:58;;;;;;;1.13;1.13;;;;;;;4.99;49.09;95350.63;2615841;54;20157;-83
2022/03/12 04:19:30;;;;;;;2.77;1.17;;;;;;;5.12;48.61;95290.38;2615800;47;20720;-82
2022/03/12 04:21:59;;;;;;;0.93;0.93;;;;;;;5.16;40.63;95317.97;2615711;54;20168;-83
2022/03/12 04:24:28;;;;;;;0.93;0.93;;;;;;;4.96;40.49;95342.69;2615633;54;20634;-82
2022/03/12 04:27:00;;;;;;;1.47;1.47;;;;;;;4.90;42.95;95370.38;2615693;54;20194;-81
2022/03/12 04:29:29;;;;;;;1.17;1.07;;;;;;;3.97;42.20;95362.09;2615707;47;20688;-81
2022/03/12 04:31:58;;;;;;;1.70;1.70;;;;;;;3.18;42.64;95370.59;2615956;54;20180;-82
2022/03/12 04:34:27;;;;;;;1.97;1.97;;;;;;;1.63;44.70;95327.06;2615930;47;20870;-82
2022/03/12 04:36:55;;;;;;;1.40;1.40;;;;;;;0.46;48.59;95271.22;2615773;47;20153;-82
2022/03/12 04:39:24;;;;;;;1.10;1.10;;;;;;;1.49;48.19;95329.50;2615682;54;20153;-82
2022/03/12 04:41:53;;;;;;;0.80;0.80;;;;;;;2.36;47.55;95279.38;2615588;54;20164;-82
2022/03/12 04:44:24;;;;;;;0.80;0.80;;;;;;;4.23;54.58;95383.53;2615940;47;20168;-83
2022/03/12 04:46:53;;;;;;;1.37;1.37;;;;;;;4.38;50.85;95314.34;2615772;47;20192;-83
2022/03/12 04:49:22;;;;;;;0.93;0.93;;;;;;;6.12;47.35;95392.78;2615789;54;20168;-81
2022/03/12 04:51:51;;;;;;;0.93;0.93;;;;;;;6.43;46.57;95370.75;2615711;51;20260;-82
2022/03/12 04:54:20;;;;;;;0.90;0.90;;;;;;;6.62;47.34;95392.25;2615555;54;20172;-82
2022/03/12 04:56:51;;;;;;;1.63;1.53;;;;;;;6.91;46.88;95400.28;2615473;54;20279;-83
2022/03/12 04:59:20;;;;;;;0.73;0.73;;;;;;;7.25;45.76;95395.88;2615936;47;20161;-81
2022/03/12 05:01:52;;;;;;;0.83;0.83;;;;;;;7.32;46.13;95363.16;2616069;39;20596;-82
2022/03/12 05:04:20;;;;;;;2.65;2.45;;;;;;;7.83;44.28;95387.13;2615602;54;20438;-82
2022/03/12 05:06:49;;;;;;;2.03;1.93;;;;;;;7.88;44.77;95384.53;2615727;47;20184;-82
2022/03/12 05:09:19;;;;;;;2.73;1.10;;;;;;;7.90;44.76;95398.75;2615533;54;20152;-82
2022/03/12 05:11:48;;;;;;;1.20;1.17;;;;;;;8.09;44.35;95416.00;2615858;54;20164;-83
2022/03/12 05:14:17;;;;;;;1.60;1.50;;;;;;;8.04;42.78;95396.69;2615700;47;20180;-83
2022/03/12 05:16:48;;;;;;;1.13;1.10;;;;;;;7.26;42.63;95365.59;2615524;54;20932;-81
2022/03/12 05:19:20;;;;;;;1.47;1.40;;;;;;;7.48;44.43;95403.50;2615705;54;20169;-81
2022/03/12 05:21:49;;;;;;;1.10;1.10;;;;;;;6.65;44.21;95367.78;2615764;54;20165;-82
2022/03/12 05:24:18;;;;;;;1.85;1.75;;;;;;;7.12;44.58;95407.81;2615421;47;20400;-82
2022/03/12 05:26:47;;;;;;;1.40;1.40;;;;;;;7.23;44.02;95426.03;2615774;54;20168;-82
2022/03/12 05:29:16;;;;;;;1.20;1.20;;;;;;;6.76;43.75;95381.09;2615869;39;20588;-82
2022/03/12 05:31:44;;;;;;;1.60;1.53;;;;;;;6.92;44.73;95415.09;2616085;39;20560;-83
2022/03/12 05:34:13;;;;;;;1.43;1.33;;;;;;;6.77;43.49;95433.25;2615712;54;20168;-83
2022/03/12 05:36:45;;;;;;;1.37;1.37;;;;;;;6.95;45.41;95433.59;2615537;54;20161;-83
2022/03/12 05:39:15;;;;;;;1.00;1.00;;;;;;;7.02;46.58;95441.75;2615478;47;20703;-82
2022/03/12 05:41:44;;;;;;;1.87;1.20;;;;;;;6.48;46.15;95357.66;2615718;54;20149;-82
2022/03/12 05:44:14;;;;;;;2.00;0.97;;;;;;;6.14;42.92;95392.94;2615491;47;20222;-82
2022/03/12 05:46:43;;;;;;;1.80;1.73;;;;;;;6.50;45.91;95413.31;2615393;47;20707;-83
2022/03/12 05:49:19;;;;;;;1.47;1.37;;;;;;;6.65;45.76;95440.97;2615480;54;20222;-82
2022/03/12 05:52:28;;;;;;;4.57;2.97;;;;;;;4.37;41.48;95127.81;2615271;54;20178;-84
2022/03/12 05:55:00;;;;;;;1.73;1.73;;;;;;;5.78;45.23;95289.47;2615728;47;20165;-82
2022/03/12 05:57:36;;;;;;;3.37;1.43;;;;;;;6.92;44.62;95427.09;2615720;47;20236;-83
2022/03/12 06:00:11;;;;;;;3.80;1.90;;;;;;;5.98;45.22;95332.88;2615964;54;20141;-82
2022/03/12 06:02:47;;;;;;;2.55;2.35;;;;;;;6.34;44.51;95377.25;2615585;47;20412;-81
2022/03/12 06:05:15;;;;;;;1.23;1.10;;;;;;;6.85;44.03;95405.56;2615729;47;20214;-82
2022/03/12 06:07:50;;;;;;;3.50;3.13;;;;;;;7.29;44.90;95457.38;2615187;54;20955;-82
2022/03/12 06:10:28;;;;;;;1.70;1.60;;;;;;;5.50;42.61;95207.72;2615637;54;20168;-82
2022/03/12 06:13:10;;;;;;;1.90;1.83;;;;;;;5.95;40.17;95300.38;2615083;54;20927;-82
2022/03/12 06:15:41;;;;;;;2.33;2.23;;;;;;;5.96;42.44;95478.97;2615788;54;20169;-82
2022/03/12 06:18:16;;;;;;;1.93;1.43;;;;;;;4.19;42.54;95273.91;2615534;39;20216;-82
2022/03/12 06:20:49;;;;;;;3.28;2.97;;;;;;;4.45;43.21;95330.25;2614723;54;20412;-82
2022/03/12 06:23:49;;;;;;;1.80;1.70;;;;;;;2.78;43.31;95164.97;2615462;46;20168;-83
2022/03/12 06:26:32;;;;;;;2.10;1.60;;;;;;;4.92;43.24;95418.94;2615298;47;20196;-80
2022/03/12 06:29:02;;;;;;;1.90;1.80;;;;;;;4.13;43.34;95511.03;2615180;54;20264;-81
2022/03/12 06:38:22;;;;;;;1.53;1.53;;;;;;;4.35;44.65;95284.72;2612345;54;20156;-79
2022/03/12 07:07:12;;;;;;;1.60;1.50;;;;;;;0.87;43.38;95325.34;2613948;31;20631;-77
